Time;durP1;ratioP1;P1;durP2;ratioP2;P2;SDS_P1;SDS_P2;PMS_P1;PMS_P2;Temp;Humidity;BMP_temperature;BMP_pressure;BME280_temperature;BME280_humidity;BME280_pressure;Samples;Min_cycle;Max_cycle;Signal;HPM_P1;HPM_P2
2021/10/03 00:02:28;;;;;;;;;5.00;3.50;;;;;;;;5037446;28;45904;-85
2021/10/03 00:04:54;;;;;;;;;4.00;3.75;;;;;;;;5049092;28;46212;-85
2021/10/03 00:07:20;;;;;;;;;5.75;3.00;;;;;;;;5044555;28;45482;-85
2021/10/03 00:09:48;;;;;;;;;3.00;3.00;;;;;;;;5042594;28;45642;-85
2021/10/03 00:12:14;;;;;;;;;3.25;3.25;;;;;;;;5042639;28;45481;-85
2021/10/03 00:14:39;;;;;;;;;5.00;3.00;;;;;;;;5048931;28;47991;-85
2021/10/03 00:17:04;;;;;;;;;4.50;3.25;;;;;;;;5041321;28;45458;-85
2021/10/03 00:19:29;;;;;;;;;4.00;4.00;;;;;;;;5042492;28;45554;-84
2021/10/03 00:21:56;;;;;;;;;5.00;4.00;;;;;;;;5042167;28;45442;-85
2021/10/03 00:24:22;;;;;;;;;3.50;3.50;;;;;;;;5042387;28;46447;-84
2021/10/03 00:26:47;;;;;;;;;4.75;3.50;;;;;;;;5042126;28;45403;-85
2021/10/03 00:29:12;;;;;;;;;4.00;4.00;;;;;;;;5042463;28;45392;-85
2021/10/03 00:31:38;;;;;;;;;5.00;4.00;;;;;;;;5046424;28;45497;-85
2021/10/03 00:34:03;;;;;;;;;4.00;4.00;;;;;;;;5044976;28;46212;-84
2021/10/03 00:36:28;;;;;;;;;5.00;3.75;;;;;;;;5042395;28;45277;-85
2021/10/03 00:38:54;;;;;;;;;5.50;5.00;;;;;;;;5054780;28;45339;-85
2021/10/03 00:41:19;;;;;;;;;4.00;4.00;;;;;;;;5043818;28;45324;-85
2021/10/03 00:43:44;;;;;;;;;5.25;5.00;;;;;;;;5043793;28;45369;-84
2021/10/03 00:46:10;;;;;;;;;4.25;4.00;;;;;;;;5046054;28;45308;-84
2021/10/03 00:48:35;;;;;;;;;6.00;5.00;;;;;;;;5046493;28;44740;-85
2021/10/03 00:51:00;;;;;;;;;6.75;4.50;;;;;;;;5057548;28;45618;-85
2021/10/03 00:53:28;;;;;;;;;5.75;4.00;;;;;;;;5064626;28;46147;-85
2021/10/03 00:55:54;;;;;;;;;5.00;4.00;;;;;;;;5068948;28;45541;-85
2021/10/03 00:58:20;;;;;;;;;6.00;4.50;;;;;;;;5047365;28;45364;-84
2021/10/03 01:00:45;;;;;;;;;6.25;5.00;;;;;;;;5042090;28;45350;-84
2021/10/03 01:03:10;;;;;;;;;4.00;4.00;;;;;;;;5041901;28;45608;-85
2021/10/03 01:05:35;;;;;;;;;5.75;4.00;;;;;;;;5040218;28;45398;-84
2021/10/03 01:08:01;;;;;;;;;5.75;4.00;;;;;;;;5042053;28;45225;-84
2021/10/03 01:10:27;;;;;;;;;5.00;5.00;;;;;;;;5044661;28;45405;-84
2021/10/03 01:13:02;;;;;;;;;8.00;6.50;;;;;;;;5050993;28;45612;-84
2021/10/03 01:15:28;;;;;;;;;9.50;6.50;;;;;;;;5043755;28;45315;-84
2021/10/03 01:17:53;;;;;;;;;8.00;7.25;;;;;;;;5036990;28;45471;-84
2021/10/03 01:20:19;;;;;;;;;6.00;6.00;;;;;;;;5041297;28;45251;-84
2021/10/03 01:22:45;;;;;;;;;5.25;5.25;;;;;;;;5040823;28;45964;-84
2021/10/03 01:25:10;;;;;;;;;7.25;7.25;;;;;;;;5041450;28;46501;-84
2021/10/03 01:27:36;;;;;;;;;8.00;7.00;;;;;;;;5040016;28;45430;-84
2021/10/03 01:30:03;;;;;;;;;6.50;4.50;;;;;;;;5041151;28;45608;-84
2021/10/03 01:32:28;;;;;;;;;6.00;5.75;;;;;;;;5041203;28;46866;-84
2021/10/03 01:34:54;;;;;;;;;6.25;6.00;;;;;;;;5041168;28;45280;-83
2021/10/03 01:37:22;;;;;;;;;8.75;6.75;;;;;;;;5041147;28;45448;-83
2021/10/03 01:39:47;;;;;;;;;7.50;7.00;;;;;;;;5041086;28;46208;-84
2021/10/03 01:42:12;;;;;;;;;8.25;6.75;;;;;;;;5041181;28;45381;-83
2021/10/03 01:44:37;;;;;;;;;7.00;7.00;;;;;;;;5040839;28;45474;-84
2021/10/03 01:47:03;;;;;;;;;8.67;6.67;;;;;;;;5041422;28;45321;-84
2021/10/03 01:49:29;;;;;;;;;7.25;7.25;;;;;;;;5039571;28;46209;-83
2021/10/03 01:51:55;;;;;;;;;8.75;8.00;;;;;;;;5040559;28;45446;-84
2021/10/03 01:54:20;;;;;;;;;8.25;8.25;;;;;;;;5041256;28;45237;-84
2021/10/03 01:56:45;;;;;;;;;6.00;6.00;;;;;;;;5043662;28;45252;-84
2021/10/03 01:59:10;;;;;;;;;6.00;6.00;;;;;;;;5043259;28;45519;-84
2021/10/03 02:01:43;;;;;;;;;4.00;4.00;;;;;;;;5039350;28;48179;-83
2021/10/03 02:04:12;;;;;;;;;6.75;6.75;;;;;;;;5040088;28;45447;-84
2021/10/03 02:06:41;;;;;;;;;9.25;7.50;;;;;;;;5040772;28;45413;-84
2021/10/03 02:09:06;;;;;;;;;8.00;5.25;;;;;;;;5039021;28;45650;-84
2021/10/03 02:11:31;;;;;;;;;11.50;8.25;;;;;;;;5040494;28;45434;-84
2021/10/03 02:13:56;;;;;;;;;6.67;6.67;;;;;;;;5040141;28;45407;-84
2021/10/03 02:16:22;;;;;;;;;7.50;7.00;;;;;;;;5039225;28;45747;-84
2021/10/03 02:18:47;;;;;;;;;8.50;6.75;;;;;;;;5040228;28;45513;-84
2021/10/03 02:21:13;;;;;;;;;7.00;7.00;;;;;;;;5039899;28;45412;-84
2021/10/03 02:23:39;;;;;;;;;8.00;6.75;;;;;;;;5040323;28;45315;-84
2021/10/03 02:26:05;;;;;;;;;8.00;8.00;;;;;;;;5039616;28;45225;-84
2021/10/03 02:28:30;;;;;;;;;6.50;6.25;;;;;;;;5040409;28;45314;-83
2021/10/03 02:30:58;;;;;;;;;7.00;7.00;;;;;;;;5038900;28;46997;-84
2021/10/03 02:33:23;;;;;;;;;7.50;7.50;;;;;;;;5039119;28;45301;-83
2021/10/03 02:35:49;;;;;;;;;2.33;2.33;;;;;;;;5040401;28;45317;-84
2021/10/03 02:38:17;;;;;;;;;8.75;6.75;;;;;;;;5040856;28;45396;-84
2021/10/03 02:40:44;;;;;;;;;6.50;5.00;;;;;;;;5043421;28;45478;-84
2021/10/03 02:43:09;;;;;;;;;10.50;5.50;;;;;;;;5039089;28;46409;-83
2021/10/03 02:45:36;;;;;;;;;6.00;6.00;;;;;;;;5040324;28;45299;-83
2021/10/03 02:48:02;;;;;;;;;8.50;8.50;;;;;;;;5040103;28;45489;-83
2021/10/03 02:50:27;;;;;;;;;8.00;6.50;;;;;;;;5038225;28;48610;-84
2021/10/03 02:52:52;;;;;;;;;7.50;6.50;;;;;;;;5039961;28;45424;-82
2021/10/03 02:55:17;;;;;;;;;8.00;6.00;;;;;;;;5040190;28;45311;-82
2021/10/03 02:57:43;;;;;;;;;10.25;7.75;;;;;;;;5048768;28;45260;-82
2021/10/03 03:00:08;;;;;;;;;6.33;5.33;;;;;;;;5039803;28;45523;-82
2021/10/03 03:02:34;;;;;;;;;11.50;9.75;;;;;;;;5040854;28;45478;-82
2021/10/03 03:12:54;;;;;;;;;7.00;6.00;;;;;;;;4718031;28;250968970;-81
2021/10/03 03:18:11;;;;;;;;;;;;;;;;;;2;261077360;261077360;-82
2021/10/03 03:20:36;;;;;;;;;8.75;6.75;;;;;;;;2144582;28;58747269;-82
2021/10/03 03:27:45;;;;;;;;;;;;;;;;;;3035175;28;258157977;-82
2021/10/03 03:30:13;;;;;;;;;7.00;7.00;;;;;;;;308825;28;37455519;-82
2021/10/03 03:32:39;;;;;;;;;8.00;6.25;;;;;;;;3815360;28;3720026;-82
2021/10/03 03:35:05;;;;;;;;;6.25;6.25;;;;;;;;4990007;28;339484;-82
2021/10/03 03:37:30;;;;;;;;;8.00;7.50;;;;;;;;5056732;28;29058;-82
2021/10/03 03:39:55;;;;;;;;;6.00;6.00;;;;;;;;5054036;28;28765;-82
2021/10/03 03:42:21;;;;;;;;;9.33;8.67;;;;;;;;5055429;28;28388;-82
2021/10/03 03:44:46;;;;;;;;;10.50;8.00;;;;;;;;5054934;28;28661;-82
2021/10/03 03:47:11;;;;;;;;;10.00;8.00;;;;;;;;5055435;28;28446;-82
2021/10/03 03:49:38;;;;;;;;;7.50;7.25;;;;;;;;5057176;28;28356;-82
2021/10/03 03:52:03;;;;;;;;;7.25;7.25;;;;;;;;5058525;28;28485;-82
2021/10/03 03:54:29;;;;;;;;;8.25;8.00;;;;;;;;5055172;28;29361;-82
2021/10/03 03:56:54;;;;;;;;;8.25;7.25;;;;;;;;5062415;28;28526;-82
2021/10/03 03:59:20;;;;;;;;;10.00;8.25;;;;;;;;5055260;28;28473;-82
2021/10/03 04:01:45;;;;;;;;;8.75;8.25;;;;;;;;5055997;28;28445;-82
2021/10/03 04:04:10;;;;;;;;;6.50;6.00;;;;;;;;5056728;28;28472;-83
2021/10/03 04:06:36;;;;;;;;;10.50;10.00;;;;;;;;5053862;28;28500;-82
2021/10/03 04:09:01;;;;;;;;;8.50;8.50;;;;;;;;5055202;28;28512;-82
2021/10/03 04:11:26;;;;;;;;;11.50;8.25;;;;;;;;5054625;28;28347;-82
2021/10/03 04:13:52;;;;;;;;;9.00;8.33;;;;;;;;5058532;28;29401;-82
2021/10/03 04:16:17;;;;;;;;;9.67;8.00;;;;;;;;5054821;28;28461;-82
2021/10/03 04:18:42;;;;;;;;;8.00;8.00;;;;;;;;5055051;28;28400;-82
2021/10/03 04:21:08;;;;;;;;;10.33;9.00;;;;;;;;5054140;28;28559;-82
2021/10/03 04:23:33;;;;;;;;;12.50;9.75;;;;;;;;5050443;28;45009;-82
2021/10/03 04:25:58;;;;;;;;;10.00;10.00;;;;;;;;5040078;28;45447;-82
2021/10/03 04:28:25;;;;;;;;;11.00;8.00;;;;;;;;5061101;28;42770;-82
2021/10/03 04:30:51;;;;;;;;;10.00;9.50;;;;;;;;5074637;28;12404;-82
2021/10/03 04:33:16;;;;;;;;;14.00;10.00;;;;;;;;5064710;28;8793;-81
2021/10/03 04:35:41;;;;;;;;;10.00;9.00;;;;;;;;5074916;28;8812;-82
2021/10/03 04:38:07;;;;;;;;;11.00;9.33;;;;;;;;5074862;28;10738;-82
2021/10/03 04:40:32;;;;;;;;;10.75;9.00;;;;;;;;5075139;28;9219;-82
2021/10/03 04:42:57;;;;;;;;;13.25;10.25;;;;;;;;5074888;28;11968;-82
2021/10/03 04:45:23;;;;;;;;;9.33;9.00;;;;;;;;5071552;28;27693;-82
2021/10/03 04:47:48;;;;;;;;;12.00;11.75;;;;;;;;5077259;28;28303;-82
2021/10/03 04:50:14;;;;;;;;;10.33;9.67;;;;;;;;5062362;28;28429;-82
2021/10/03 04:52:43;;;;;;;;;13.25;10.75;;;;;;;;5057802;28;29918;-82
2021/10/03 04:55:09;;;;;;;;;9.50;7.50;;;;;;;;5056982;28;28390;-82
2021/10/03 04:57:35;;;;;;;;;10.50;10.00;;;;;;;;5055139;28;44689;-82
2021/10/03 05:00:00;;;;;;;;;12.00;12.00;;;;;;;;5044809;28;45240;-82
2021/10/03 05:02:25;;;;;;;;;12.00;10.75;;;;;;;;5044047;28;47423;-82
2021/10/03 05:04:50;;;;;;;;;11.33;9.00;;;;;;;;5041674;28;45399;-82
2021/10/03 05:07:16;;;;;;;;;9.00;9.00;;;;;;;;5039789;28;47475;-82
2021/10/03 05:09:41;;;;;;;;;13.33;10.00;;;;;;;;5033036;28;45322;-82
2021/10/03 05:12:07;;;;;;;;;10.00;8.67;;;;;;;;5041565;28;45319;-82
2021/10/03 05:14:32;;;;;;;;;15.75;11.00;;;;;;;;5052742;28;45561;-82
2021/10/03 05:16:58;;;;;;;;;14.50;13.00;;;;;;;;5044989;28;45414;-82
2021/10/03 05:19:23;;;;;;;;;12.33;10.33;;;;;;;;5044503;28;45352;-82
2021/10/03 05:21:48;;;;;;;;;12.00;11.00;;;;;;;;5052035;28;44552;-82
2021/10/03 05:24:13;;;;;;;;;15.67;11.00;;;;;;;;5044280;28;45289;-81
2021/10/03 05:26:38;;;;;;;;;8.00;8.00;;;;;;;;5043811;28;45338;-82
2021/10/03 05:29:04;;;;;;;;;13.75;10.75;;;;;;;;5043707;28;45188;-82
2021/10/03 05:31:29;;;;;;;;;6.00;6.00;;;;;;;;5057442;28;45818;-81
2021/10/03 05:33:55;;;;;;;;;3.25;3.25;;;;;;;;5045132;28;45506;-81
2021/10/03 05:36:20;;;;;;;;;4.00;3.00;;;;;;;;5044240;28;45815;-82
2021/10/03 05:38:46;;;;;;;;;2.50;1.25;;;;;;;;5044142;28;45339;-81
2021/10/03 05:41:11;;;;;;;;;1.50;0.00;;;;;;;;5043950;28;45480;-81
2021/10/03 05:43:39;;;;;;;;;1.00;1.00;;;;;;;;5045121;28;46631;-82
2021/10/03 05:46:05;;;;;;;;;0.00;0.00;;;;;;;;5043231;28;45313;-82
2021/10/03 05:48:31;;;;;;;;;0.00;0.00;;;;;;;;5051489;28;45348;-82
2021/10/03 05:50:56;;;;;;;;;0.00;0.00;;;;;;;;5061096;28;47068;-82
2021/10/03 05:53:21;;;;;;;;;0.00;0.00;;;;;;;;5051016;28;45256;-81
2021/10/03 05:55:46;;;;;;;;;0.00;0.00;;;;;;;;5043648;28;45386;-82
2021/10/03 05:58:11;;;;;;;;;0.00;0.00;;;;;;;;5040944;28;45521;-82
2021/10/03 06:00:39;;;;;;;;;0.00;0.00;;;;;;;;5037338;28;47671;-82
2021/10/03 06:03:04;;;;;;;;;0.50;0.50;;;;;;;;5038887;28;45456;-82
2021/10/03 06:05:29;;;;;;;;;0.00;0.00;;;;;;;;5040803;28;45382;-82
2021/10/03 06:07:54;;;;;;;;;0.75;0.75;;;;;;;;5040066;28;45557;-82
2021/10/03 06:10:20;;;;;;;;;0.00;0.00;;;;;;;;5039486;28;47834;-83
2021/10/03 06:12:45;;;;;;;;;0.00;0.00;;;;;;;;5042938;28;45533;-82
2021/10/03 06:15:10;;;;;;;;;0.00;0.00;;;;;;;;5039525;28;45471;-82
2021/10/03 06:17:36;;;;;;;;;0.00;0.00;;;;;;;;5040527;28;45619;-82
2021/10/03 06:20:02;;;;;;;;;0.25;0.00;;;;;;;;5039995;28;45456;-83
2021/10/03 06:22:27;;;;;;;;;0.00;0.00;;;;;;;;5040516;28;45336;-83
2021/10/03 06:24:53;;;;;;;;;1.00;0.00;;;;;;;;5040180;28;45224;-82
2021/10/03 06:27:18;;;;;;;;;0.75;0.00;;;;;;;;5039082;28;45540;-82
2021/10/03 06:29:44;;;;;;;;;0.00;0.00;;;;;;;;5040072;28;46135;-82
2021/10/03 06:32:09;;;;;;;;;0.00;0.00;;;;;;;;5040674;28;45450;-82
2021/10/03 06:34:34;;;;;;;;;0.00;0.00;;;;;;;;5038417;28;45490;-82
2021/10/03 06:37:00;;;;;;;;;0.75;0.75;;;;;;;;5038714;28;45267;-83
2021/10/03 06:39:25;;;;;;;;;0.00;0.00;;;;;;;;5040054;28;45569;-83
2021/10/03 06:41:50;;;;;;;;;0.00;0.00;;;;;;;;5050789;28;45260;-82
2021/10/03 06:44:15;;;;;;;;;0.00;0.00;;;;;;;;5041468;28;45236;-83
2021/10/03 06:46:40;;;;;;;;;0.00;0.00;;;;;;;;5040044;28;45454;-82
2021/10/03 06:49:06;;;;;;;;;0.67;0.00;;;;;;;;5039959;28;45439;-81
2021/10/03 06:51:31;;;;;;;;;1.50;0.00;;;;;;;;5039805;28;45241;-81
2021/10/03 06:53:57;;;;;;;;;0.00;0.00;;;;;;;;5038711;28;46537;-82
2021/10/03 06:56:22;;;;;;;;;0.75;0.00;;;;;;;;5043225;28;46008;-81
2021/10/03 06:58:47;;;;;;;;;0.00;0.00;;;;;;;;5038632;28;47263;-81
2021/10/03 07:01:13;;;;;;;;;0.00;0.00;;;;;;;;5040122;28;45617;-81
2021/10/03 07:03:38;;;;;;;;;0.00;0.00;;;;;;;;5038534;28;45650;-81
2021/10/03 07:06:03;;;;;;;;;2.00;0.00;;;;;;;;5038679;28;45620;-81
2021/10/03 07:08:29;;;;;;;;;0.50;0.50;;;;;;;;5037621;28;47654;-81
2021/10/03 07:10:54;;;;;;;;;0.00;0.00;;;;;;;;5037705;28;46286;-81
2021/10/03 07:13:19;;;;;;;;;0.00;0.00;;;;;;;;5048556;28;45488;-81
2021/10/03 07:15:44;;;;;;;;;0.00;0.00;;;;;;;;5042312;28;45422;-81
2021/10/03 07:18:11;;;;;;;;;2.00;0.00;;;;;;;;5038161;28;48027;-81
2021/10/03 07:20:37;;;;;;;;;0.00;0.00;;;;;;;;5038769;28;45514;-81
2021/10/03 07:23:02;;;;;;;;;0.00;0.00;;;;;;;;5044815;28;45475;-81
2021/10/03 07:25:27;;;;;;;;;0.00;0.00;;;;;;;;5042236;28;45646;-82
2021/10/03 07:27:52;;;;;;;;;1.00;1.00;;;;;;;;5050506;28;45262;-82
2021/10/03 07:30:18;;;;;;;;;1.00;1.00;;;;;;;;5055491;28;28694;-82
2021/10/03 07:32:43;;;;;;;;;1.67;1.67;;;;;;;;5057727;28;28378;-83
2021/10/03 07:35:09;;;;;;;;;2.00;1.33;;;;;;;;5053913;28;28881;-82
2021/10/03 07:37:34;;;;;;;;;4.00;3.00;;;;;;;;5056057;28;29177;-83
2021/10/03 07:40:02;;;;;;;;;2.33;2.00;;;;;;;;5050056;28;45241;-83
2021/10/03 07:42:28;;;;;;;;;1.00;1.00;;;;;;;;5055335;28;38549;-83
2021/10/03 07:44:53;;;;;;;;;3.00;1.00;;;;;;;;5066062;28;29721;-83
2021/10/03 07:47:21;;;;;;;;;1.00;1.00;;;;;;;;5055993;28;28393;-83
2021/10/03 07:49:46;;;;;;;;;1.25;1.25;;;;;;;;5055223;28;28414;-82
2021/10/03 07:52:12;;;;;;;;;1.25;1.25;;;;;;;;5055385;28;28645;-83
2021/10/03 07:54:37;;;;;;;;;0.00;0.00;;;;;;;;5055436;28;28627;-81
2021/10/03 07:57:02;;;;;;;;;2.00;2.00;;;;;;;;5065640;28;28452;-80
2021/10/03 07:59:28;;;;;;;;;0.00;0.00;;;;;;;;5055301;28;28319;-81
2021/10/03 08:01:53;;;;;;;;;1.00;1.00;;;;;;;;5053719;28;28496;-82
2021/10/03 08:04:18;;;;;;;;;3.00;1.00;;;;;;;;5063544;28;44807;-82
2021/10/03 08:06:43;;;;;;;;;0.00;0.00;;;;;;;;5039316;28;45341;-82
2021/10/03 08:09:09;;;;;;;;;0.67;0.00;;;;;;;;5051536;28;44252;-82
2021/10/03 08:11:34;;;;;;;;;5.50;1.75;;;;;;;;5058744;28;28557;-83
2021/10/03 08:13:59;;;;;;;;;1.25;1.00;;;;;;;;5057483;28;28683;-82
2021/10/03 08:16:25;;;;;;;;;1.75;1.00;;;;;;;;5054152;28;28711;-82
2021/10/03 08:18:50;;;;;;;;;1.00;1.00;;;;;;;;5052893;28;29090;-84
2021/10/03 08:21:16;;;;;;;;;2.00;2.00;;;;;;;;5058012;28;28665;-83
2021/10/03 08:23:41;;;;;;;;;3.75;2.75;;;;;;;;5054273;28;29929;-83
2021/10/03 08:26:07;;;;;;;;;2.50;2.50;;;;;;;;5057765;28;28429;-82
2021/10/03 08:28:32;;;;;;;;;1.00;1.00;;;;;;;;5055026;28;28592;-83
2021/10/03 08:30:57;;;;;;;;;1.67;1.67;;;;;;;;5062732;28;41857;-83
2021/10/03 08:33:22;;;;;;;;;3.50;3.00;;;;;;;;5062021;28;28727;-83
2021/10/03 08:35:48;;;;;;;;;2.25;2.00;;;;;;;;5065213;28;44635;-84
2021/10/03 08:38:13;;;;;;;;;2.00;1.00;;;;;;;;5052072;28;45230;-83
2021/10/03 08:40:38;;;;;;;;;3.25;1.75;;;;;;;;5055831;28;45379;-82
2021/10/03 08:43:05;;;;;;;;;1.25;1.25;;;;;;;;5059277;28;44832;-83
2021/10/03 08:45:30;;;;;;;;;1.25;1.25;;;;;;;;5050069;28;45555;-83
2021/10/03 08:47:55;;;;;;;;;2.75;2.00;;;;;;;;5043106;28;45206;-82
2021/10/03 08:50:21;;;;;;;;;3.00;2.00;;;;;;;;5044638;28;45340;-82
2021/10/03 08:52:46;;;;;;;;;2.00;2.00;;;;;;;;5041230;28;45482;-85
2021/10/03 08:55:13;;;;;;;;;2.00;2.00;;;;;;;;5042535;28;46366;-85
2021/10/03 08:57:38;;;;;;;;;4.00;4.00;;;;;;;;5042136;28;45514;-88
2021/10/03 09:00:07;;;;;;;;;3.00;3.00;;;;;;;;5039598;28;45450;-89
2021/10/03 09:02:52;;;;;;;;;3.00;3.00;;;;;;;;5042021;28;45969;-89
2021/10/03 09:05:18;;;;;;;;;1.50;1.25;;;;;;;;5043809;28;45671;-89
2021/10/03 09:07:57;;;;;;;;;2.75;2.75;;;;;;;;5055176;28;45419;-88
2021/10/03 09:10:22;;;;;;;;;4.25;4.00;;;;;;;;5038428;28;45521;-88
2021/10/03 09:12:48;;;;;;;;;3.25;3.00;;;;;;;;5045945;28;45430;-89
2021/10/03 09:15:20;;;;;;;;;4.00;4.00;;;;;;;;5043356;28;47067;-89
2021/10/03 09:17:52;;;;;;;;;3.50;3.50;;;;;;;;5059944;28;28742;-88
2021/10/03 09:20:24;;;;;;;;;5.00;4.00;;;;;;;;5073878;28;38313;-88
2021/10/03 09:23:04;;;;;;;;;3.25;2.75;;;;;;;;5089868;28;8777;-88
2021/10/03 09:25:46;;;;;;;;;2.00;2.00;;;;;;;;5076104;28;8801;-89
2021/10/03 09:28:12;;;;;;;;;2.75;2.00;;;;;;;;5078734;28;8881;-88
2021/10/03 09:30:51;;;;;;;;;2.00;2.00;;;;;;;;5075085;28;8927;-89
2021/10/03 09:33:16;;;;;;;;;2.25;2.25;;;;;;;;5084936;28;27795;-88
2021/10/03 09:35:52;;;;;;;;;3.67;2.00;;;;;;;;5063773;28;42795;-89
2021/10/03 09:38:17;;;;;;;;;2.00;2.00;;;;;;;;5056133;28;30882;-89
2021/10/03 09:40:42;;;;;;;;;2.33;1.00;;;;;;;;5057100;28;28624;-88
2021/10/03 09:43:08;;;;;;;;;2.00;2.00;;;;;;;;5057120;28;28497;-88
2021/10/03 09:45:33;;;;;;;;;2.50;1.00;;;;;;;;5059441;28;29253;-88
2021/10/03 09:48:00;;;;;;;;;0.00;0.00;;;;;;;;5059288;28;28542;-88
2021/10/03 09:50:26;;;;;;;;;2.25;0.00;;;;;;;;5061854;28;28471;-88
2021/10/03 09:52:52;;;;;;;;;0.00;0.00;;;;;;;;5058255;28;28247;-88
2021/10/03 09:55:18;;;;;;;;;0.00;0.00;;;;;;;;5057739;28;29185;-88
2021/10/03 09:57:44;;;;;;;;;0.75;0.75;;;;;;;;5065984;28;28614;-87
2021/10/03 10:00:10;;;;;;;;;0.00;0.00;;;;;;;;5063287;28;28583;-87
2021/10/03 10:02:35;;;;;;;;;2.75;0.25;;;;;;;;5053127;28;28734;-87
2021/10/03 10:05:00;;;;;;;;;0.00;0.00;;;;;;;;5061337;28;30789;-86
2021/10/03 10:07:26;;;;;;;;;2.00;1.00;;;;;;;;5057902;28;28539;-87
2021/10/03 10:09:51;;;;;;;;;0.00;0.00;;;;;;;;5057505;28;28596;-86
2021/10/03 10:12:19;;;;;;;;;0.00;0.00;;;;;;;;5056605;28;28947;-86
2021/10/03 10:14:45;;;;;;;;;0.50;0.50;;;;;;;;5059218;28;28562;-86
2021/10/03 10:17:28;;;;;;;;;0.00;0.00;;;;;;;;5057282;28;28662;-85
2021/10/03 10:19:55;;;;;;;;;1.00;0.00;;;;;;;;5053176;28;28437;-88
2021/10/03 10:22:29;;;;;;;;;0.00;0.00;;;;;;;;5066672;28;28642;-84
2021/10/03 10:25:05;;;;;;;;;1.00;0.00;;;;;;;;5053025;28;29860;-86
2021/10/03 10:27:30;;;;;;;;;0.00;0.00;;;;;;;;5063675;28;28254;-86
2021/10/03 10:29:59;;;;;;;;;2.00;1.00;;;;;;;;5066007;28;28247;-86
2021/10/03 10:32:54;;;;;;;;;2.00;2.00;;;;;;;;5059415;28;28635;-86
2021/10/03 10:35:20;;;;;;;;;2.00;1.75;;;;;;;;5045980;28;28969;-89
2021/10/03 10:37:49;;;;;;;;;0.25;0.25;;;;;;;;5068894;28;28761;-87
2021/10/03 10:40:23;;;;;;;;;0.00;0.00;;;;;;;;5059457;28;28492;-86
2021/10/03 10:42:49;;;;;;;;;1.00;0.25;;;;;;;;5060142;28;28481;-84
2021/10/03 10:45:27;;;;;;;;;0.00;0.00;;;;;;;;5061901;28;28426;-83
2021/10/03 10:48:10;;;;;;;;;0.00;0.00;;;;;;;;5056763;28;28445;-84
2021/10/03 10:50:37;;;;;;;;;0.25;0.25;;;;;;;;5061463;28;28464;-87
2021/10/03 10:53:21;;;;;;;;;0.00;0.00;;;;;;;;5055864;28;28533;-87
2021/10/03 10:56:32;;;;;;;;;;;;;;;;;;;;;
2021/10/03 10:59:41;;;;;;;;;1.75;1.00;;;;;;;;5049011;28;56985;-87
2021/10/03 11:02:45;;;;;;;;;;;;;;;;;;;;;
2021/10/03 11:05:39;;;;;;;;;0.00;0.00;;;;;;;;5053151;28;55462;-88
2021/10/03 11:08:06;;;;;;;;;2.00;1.00;;;;;;;;5052071;28;28561;-88
2021/10/03 11:10:31;;;;;;;;;0.75;0.75;;;;;;;;5057218;28;28778;-88
2021/10/03 11:12:56;;;;;;;;;0.75;0.75;;;;;;;;5055682;28;43091;-89
2021/10/03 11:15:22;;;;;;;;;1.00;1.00;;;;;;;;5059995;28;28433;-89
2021/10/03 11:17:48;;;;;;;;;0.25;0.25;;;;;;;;5052782;28;44611;-85
2021/10/03 11:20:13;;;;;;;;;0.50;0.50;;;;;;;;5042305;28;45240;-93
2021/10/03 11:22:38;;;;;;;;;1.75;1.75;;;;;;;;5037679;28;45285;-88
2021/10/03 11:25:04;;;;;;;;;2.33;0.33;;;;;;;;5037456;28;45438;-88
2021/10/03 11:27:32;;;;;;;;;1.50;0.50;;;;;;;;5042579;28;47515;-87
2021/10/03 11:29:59;;;;;;;;;1.00;1.00;;;;;;;;5046619;28;45889;-87
2021/10/03 11:32:27;;;;;;;;;1.00;1.00;;;;;;;;5062013;28;45424;-88
2021/10/03 11:35:01;;;;;;;;;1.50;0.00;;;;;;;;5056675;28;28649;-88
2021/10/03 11:37:30;;;;;;;;;1.00;0.00;;;;;;;;5055240;28;29662;-88
2021/10/03 11:39:57;;;;;;;;;1.00;0.75;;;;;;;;5054666;28;28930;-88
2021/10/03 11:42:25;;;;;;;;;3.00;1.00;;;;;;;;5053337;28;44578;-88
2021/10/03 11:44:56;;;;;;;;;3.75;2.25;;;;;;;;5055678;28;28298;-89
2021/10/03 11:47:21;;;;;;;;;1.00;1.00;;;;;;;;5057252;28;29533;-87
2021/10/03 11:49:46;;;;;;;;;1.00;1.00;;;;;;;;5054179;28;45458;-87
2021/10/03 11:52:25;;;;;;;;;2.00;2.00;;;;;;;;5066424;28;28078;-86
2021/10/03 11:54:54;;;;;;;;;2.25;1.00;;;;;;;;5076153;28;28294;-86
2021/10/03 11:57:28;;;;;;;;;2.00;2.00;;;;;;;;5047713;28;44851;-86
2021/10/03 12:00:11;;;;;;;;;2.25;2.00;;;;;;;;5047541;28;28701;-90
2021/10/03 12:02:41;;;;;;;;;2.00;0.50;;;;;;;;5054998;28;28494;-86
2021/10/03 12:05:08;;;;;;;;;1.25;1.00;;;;;;;;5053793;28;28499;-88
2021/10/03 12:07:33;;;;;;;;;1.00;1.00;;;;;;;;5051606;28;28613;-89
2021/10/03 12:10:09;;;;;;;;;1.00;1.00;;;;;;;;5052431;28;28556;-91
2021/10/03 12:12:44;;;;;;;;;0.75;0.75;;;;;;;;5049273;28;28461;-86
2021/10/03 12:15:09;;;;;;;;;1.75;1.75;;;;;;;;5051467;28;27933;-85
2021/10/03 12:17:47;;;;;;;;;1.25;1.25;;;;;;;;5045250;28;45304;-87
2021/10/03 12:20:13;;;;;;;;;0.25;0.25;;;;;;;;5042031;28;45352;-87
2021/10/03 12:22:52;;;;;;;;;1.00;1.00;;;;;;;;5058762;28;42492;-86
2021/10/03 12:25:17;;;;;;;;;2.00;2.00;;;;;;;;5060358;28;28507;-88
2021/10/03 12:27:56;;;;;;;;;1.50;1.50;;;;;;;;5057354;28;29767;-87
2021/10/03 12:30:21;;;;;;;;;1.75;1.25;;;;;;;;5054283;28;28598;-88
2021/10/03 12:33:02;;;;;;;;;1.00;1.00;;;;;;;;5057999;28;28248;-86
2021/10/03 12:35:27;;;;;;;;;4.50;1.00;;;;;;;;5065699;28;28610;-90
2021/10/03 12:37:52;;;;;;;;;1.00;1.00;;;;;;;;5065619;28;44738;-89
2021/10/03 12:40:21;;;;;;;;;1.00;0.00;;;;;;;;5054996;28;45212;-86
2021/10/03 12:42:47;;;;;;;;;2.00;1.00;;;;;;;;5052763;28;45152;-84
2021/10/03 12:45:12;;;;;;;;;2.50;1.00;;;;;;;;5056996;28;38071;-85
2021/10/03 12:47:40;;;;;;;;;2.00;0.00;;;;;;;;5048259;28;47935;-88
2021/10/03 12:50:06;;;;;;;;;0.75;0.00;;;;;;;;5042009;28;45604;-84
2021/10/03 12:52:31;;;;;;;;;0.00;0.00;;;;;;;;5046489;28;45386;-82
2021/10/03 12:54:56;;;;;;;;;1.00;1.00;;;;;;;;5052557;28;43314;-82
2021/10/03 12:57:22;;;;;;;;;1.25;1.00;;;;;;;;5052286;28;45295;-84
2021/10/03 12:59:47;;;;;;;;;2.25;1.00;;;;;;;;5053237;28;28726;-86
2021/10/03 13:02:12;;;;;;;;;1.00;1.00;;;;;;;;5056829;28;28346;-85
2021/10/03 13:04:37;;;;;;;;;1.00;1.00;;;;;;;;5046323;28;45288;-87
2021/10/03 13:07:03;;;;;;;;;2.25;2.00;;;;;;;;5035734;28;46329;-83
2021/10/03 13:09:28;;;;;;;;;1.00;1.00;;;;;;;;5039538;28;45401;-84
2021/10/03 13:11:53;;;;;;;;;1.00;1.00;;;;;;;;5035559;28;45484;-85
2021/10/03 13:14:19;;;;;;;;;1.00;1.00;;;;;;;;5036868;28;45648;-87
2021/10/03 13:16:44;;;;;;;;;2.00;0.00;;;;;;;;5037214;28;46356;-84
2021/10/03 13:19:12;;;;;;;;;1.00;0.00;;;;;;;;5037276;28;46386;-86
2021/10/03 13:21:38;;;;;;;;;1.00;1.00;;;;;;;;5032086;28;45351;-82
2021/10/03 13:24:04;;;;;;;;;0.00;0.00;;;;;;;;5029894;28;45560;-83
2021/10/03 13:26:29;;;;;;;;;0.25;0.25;;;;;;;;5031963;28;46303;-83
2021/10/03 13:28:55;;;;;;;;;1.00;1.00;;;;;;;;5030951;28;45496;-82
2021/10/03 13:31:21;;;;;;;;;1.00;1.00;;;;;;;;5038487;28;45433;-82
2021/10/03 13:33:55;;;;;;;;;3.00;0.00;;;;;;;;5042441;28;45653;-83
2021/10/03 13:36:23;;;;;;;;;2.00;1.00;;;;;;;;5040122;28;46214;-83
2021/10/03 13:38:48;;;;;;;;;2.00;0.00;;;;;;;;5037578;28;45649;-82
2021/10/03 13:41:14;;;;;;;;;0.50;0.00;;;;;;;;5032840;28;45508;-82
2021/10/03 13:43:39;;;;;;;;;1.75;0.00;;;;;;;;5040546;28;45653;-82
2021/10/03 13:46:05;;;;;;;;;2.00;0.00;;;;;;;;5040248;28;47114;-84
2021/10/03 13:48:31;;;;;;;;;1.00;1.00;;;;;;;;5040295;28;45335;-82
2021/10/03 13:50:56;;;;;;;;;1.00;1.00;;;;;;;;5038326;28;45504;-82
2021/10/03 13:53:26;;;;;;;;;0.75;0.00;;;;;;;;5039930;28;45375;-82
2021/10/03 13:55:51;;;;;;;;;1.00;0.00;;;;;;;;5039086;28;45639;-82
2021/10/03 13:58:17;;;;;;;;;1.00;1.00;;;;;;;;5032686;28;47187;-82
2021/10/03 14:00:42;;;;;;;;;4.00;1.00;;;;;;;;5040653;28;45636;-82
2021/10/03 14:03:07;;;;;;;;;1.00;1.00;;;;;;;;5034977;28;45633;-83
2021/10/03 14:05:33;;;;;;;;;1.00;0.25;;;;;;;;5040405;28;45822;-83
2021/10/03 14:07:59;;;;;;;;;0.75;0.00;;;;;;;;5036800;28;45546;-82
2021/10/03 14:10:24;;;;;;;;;0.25;0.25;;;;;;;;5036514;28;45458;-82
2021/10/03 14:12:49;;;;;;;;;0.00;0.00;;;;;;;;5055123;28;45619;-82
2021/10/03 14:15:15;;;;;;;;;2.00;1.00;;;;;;;;5037265;28;45413;-82
2021/10/03 14:17:42;;;;;;;;;0.50;0.00;;;;;;;;5037731;28;45305;-82
2021/10/03 14:20:09;;;;;;;;;1.25;1.25;;;;;;;;5036999;28;45430;-81
2021/10/03 14:22:34;;;;;;;;;1.00;1.00;;;;;;;;5037856;28;45421;-83
2021/10/03 14:25:00;;;;;;;;;4.25;0.25;;;;;;;;5035049;28;46634;-81
2021/10/03 14:27:25;;;;;;;;;0.00;0.00;;;;;;;;5033628;28;45634;-81
2021/10/03 14:29:50;;;;;;;;;1.00;1.00;;;;;;;;5039321;28;45488;-82
2021/10/03 14:32:16;;;;;;;;;3.00;0.00;;;;;;;;5037804;28;45480;-82
2021/10/03 14:34:41;;;;;;;;;1.00;1.00;;;;;;;;5037635;28;46426;-82
2021/10/03 14:37:07;;;;;;;;;1.00;0.25;;;;;;;;5043395;28;45422;-82
2021/10/03 14:39:32;;;;;;;;;0.75;0.00;;;;;;;;5040638;28;45489;-82
2021/10/03 14:41:57;;;;;;;;;0.25;0.00;;;;;;;;5039104;28;45425;-81
2021/10/03 14:44:23;;;;;;;;;2.00;0.00;;;;;;;;5038326;28;46435;-82
2021/10/03 14:46:48;;;;;;;;;3.00;2.00;;;;;;;;5039131;28;45442;-82
2021/10/03 14:49:13;;;;;;;;;0.33;0.00;;;;;;;;5044601;28;45422;-82
2021/10/03 14:51:41;;;;;;;;;0.67;0.67;;;;;;;;5036148;28;45568;-82
2021/10/03 14:54:06;;;;;;;;;1.00;1.00;;;;;;;;5043715;28;46491;-83
2021/10/03 14:56:31;;;;;;;;;1.00;0.00;;;;;;;;5041432;28;45310;-82
2021/10/03 14:58:56;;;;;;;;;3.00;1.00;;;;;;;;5037098;28;45316;-82